createdAt,value
2018-04-13T00:00:01.449Z,13.90
2018-04-13T00:02:28.989Z,13.90
2018-04-13T00:04:56.494Z,13.90
2018-04-13T00:07:24.017Z,14.00
2018-04-13T00:09:51.537Z,14.00
2018-04-13T00:12:19.813Z,14.00
2018-04-13T00:14:47.333Z,14.00
2018-04-13T00:17:14.865Z,14.10
2018-04-13T00:19:42.391Z,14.00
2018-04-13T00:22:10.661Z,13.90
2018-04-13T00:24:38.217Z,13.80
2018-04-13T00:27:05.722Z,13.90
2018-04-13T00:29:34.001Z,13.80
2018-04-13T00:32:02.298Z,13.90
2018-04-13T00:34:30.579Z,13.80
2018-04-13T00:36:58.849Z,13.80
2018-04-13T00:39:27.163Z,13.70
2018-04-13T00:41:54.676Z,13.70
2018-04-13T00:44:22.201Z,13.70
2018-04-13T00:46:49.765Z,13.60
2018-04-13T00:49:17.599Z,13.60
2018-04-13T00:51:45.871Z,13.60
2018-04-13T00:54:14.179Z,13.70
2018-04-13T00:56:41.701Z,13.70
2018-04-13T00:59:09.205Z,13.80
2018-04-13T01:01:36.747Z,13.80
2018-04-13T01:04:05.027Z,13.80
2018-04-13T01:06:33.311Z,13.80
2018-04-13T01:09:01.614Z,13.80
2018-04-13T01:11:29.125Z,13.70
2018-04-13T01:13:56.642Z,13.70
2018-04-13T01:16:24.205Z,13.60
2018-04-13T01:18:52.477Z,13.70
2018-04-13T01:21:19.987Z,13.60
2018-04-13T01:23:47.525Z,13.80
2018-04-13T01:26:15.040Z,13.60
2018-04-13T01:28:43.325Z,13.70
2018-04-13T01:31:11.680Z,13.70
2018-04-13T01:33:39.353Z,13.70
2018-04-13T01:36:06.896Z,13.80
2018-04-13T01:38:34.439Z,13.90
2018-04-13T01:41:01.970Z,13.90
2018-04-13T01:43:30.245Z,13.80
2018-04-13T01:48:33.284Z,13.70
2018-04-13T01:51:01.617Z,13.70
2018-04-13T01:53:29.159Z,13.60
2018-04-13T01:55:56.681Z,13.60
2018-04-13T01:58:25.915Z,13.60
2018-04-13T02:00:53.425Z,13.60
2018-04-13T02:03:20.950Z,13.60
2018-04-13T02:05:48.453Z,13.50
2018-04-13T02:08:15.967Z,13.50
2018-04-13T02:10:43.501Z,13.50
2018-04-13T02:13:11.806Z,13.50
2018-04-13T02:15:39.305Z,13.50
2018-04-13T02:18:06.846Z,13.50
2018-04-13T02:20:34.353Z,13.50
2018-04-13T02:23:01.866Z,13.50
2018-04-13T02:25:29.401Z,13.60
2018-04-13T02:27:57.669Z,13.50
2018-04-13T02:30:26.693Z,13.30
2018-04-13T02:32:54.981Z,13.40
2018-04-13T02:35:22.502Z,13.30
2018-04-13T02:37:50.022Z,13.30
2018-04-13T02:40:17.559Z,13.30
2018-04-13T02:42:45.839Z,13.20
2018-04-13T02:45:14.117Z,13.30
2018-04-13T02:47:42.416Z,13.30
2018-04-13T02:50:09.945Z,13.30
2018-04-13T02:52:37.496Z,13.40
2018-04-13T02:55:05.033Z,13.30
2018-04-13T02:57:32.561Z,13.30
2018-04-13T03:00:00.847Z,13.40
2018-04-13T03:02:29.150Z,13.40
2018-04-13T03:04:56.660Z,13.30
2018-04-13T03:07:24.168Z,13.20
2018-04-13T03:09:51.698Z,13.10
2018-04-13T03:12:19.202Z,13.10
2018-04-13T03:14:46.759Z,13.20
2018-04-13T03:17:14.384Z,13.30
2018-04-13T03:19:42.657Z,13.30
2018-04-13T03:22:10.178Z,13.30
2018-04-13T03:24:37.745Z,13.40
2018-04-13T03:27:05.302Z,13.50
2018-04-13T03:29:32.818Z,13.50
2018-04-13T03:32:01.107Z,13.30
2018-04-13T03:34:28.621Z,13.20
2018-04-13T03:36:56.121Z,13.40
2018-04-13T03:39:23.664Z,13.50
2018-04-13T03:41:51.257Z,13.50
2018-04-13T03:44:18.863Z,13.50
2018-04-13T03:46:46.389Z,13.50
2018-04-13T03:49:13.907Z,13.40
2018-04-13T03:51:41.430Z,13.50
2018-04-13T03:54:09.990Z,13.50
2018-04-13T03:56:37.500Z,13.50
2018-04-13T03:59:05.003Z,13.40
2018-04-13T04:01:32.528Z,13.40
2018-04-13T04:04:00.046Z,13.40
2018-04-13T04:06:27.549Z,13.40
2018-04-13T04:08:55.851Z,13.40
2018-04-13T04:11:23.364Z,13.30
2018-04-13T04:13:50.970Z,13.40
2018-04-13T04:16:18.516Z,13.40
2018-04-13T04:18:46.913Z,13.40
2018-04-13T04:21:27.146Z,13.50
2018-04-13T04:24:06.572Z,13.40
2018-04-13T04:26:45.836Z,13.50
2018-04-13T04:29:13.363Z,13.60
2018-04-13T04:31:40.877Z,13.60
2018-04-13T04:34:08.442Z,13.60
2018-04-13T04:36:35.955Z,13.60
2018-04-13T04:39:07.100Z,13.60
2018-04-13T04:41:34.633Z,13.60
2018-04-13T04:44:02.188Z,13.50
2018-04-13T04:46:29.695Z,13.50
2018-04-13T04:48:58.000Z,13.70
2018-04-13T04:51:26.410Z,13.80
2018-04-13T04:53:53.922Z,13.70
2018-04-13T04:56:21.512Z,13.80
2018-04-13T04:58:49.789Z,13.80
2018-04-13T05:01:18.069Z,13.80
2018-04-13T05:03:46.385Z,13.80
2018-04-13T05:06:13.952Z,13.80
2018-04-13T05:08:41.476Z,13.90
2018-04-13T05:11:09.785Z,14.00
2018-04-13T05:13:37.297Z,13.90
2018-04-13T05:16:04.821Z,14.10
2018-04-13T05:18:32.354Z,14.00
2018-04-13T05:21:00.634Z,14.00
2018-04-13T05:23:28.912Z,14.00
2018-04-13T05:25:57.241Z,14.10
2018-04-13T05:28:24.973Z,14.00
2018-04-13T05:30:52.718Z,13.90
2018-04-13T05:33:20.278Z,13.90
2018-04-13T05:35:47.783Z,14.00
2018-04-13T05:38:15.284Z,14.10
2018-04-13T05:40:42.825Z,14.20
2018-04-13T05:43:10.368Z,14.20
2018-04-13T05:45:38.690Z,14.10
2018-04-13T05:48:06.307Z,14.00
2018-04-13T05:50:33.901Z,14.00
2018-04-13T05:53:01.410Z,14.00
2018-04-13T05:55:28.946Z,14.10
2018-04-13T05:57:56.504Z,14.20
2018-04-13T06:00:24.004Z,14.10
2018-04-13T06:02:51.541Z,14.30
2018-04-13T06:05:19.045Z,14.30
2018-04-13T06:07:46.817Z,14.30
2018-04-13T06:10:15.159Z,14.30
2018-04-13T06:12:42.675Z,14.20
2018-04-13T06:15:11.101Z,14.40
2018-04-13T06:17:38.653Z,14.30
2018-04-13T06:20:06.189Z,14.30
2018-04-13T06:22:34.470Z,14.30
2018-04-13T06:25:02.771Z,14.40
2018-04-13T06:27:30.286Z,14.30
2018-04-13T06:29:59.313Z,14.50
2018-04-13T06:32:27.614Z,14.40
2018-04-13T06:34:55.184Z,14.40
2018-04-13T06:37:22.702Z,14.10
2018-04-13T06:39:50.255Z,14.20
2018-04-13T06:42:17.762Z,14.20
2018-04-13T06:44:46.036Z,14.20
2018-04-13T06:47:14.341Z,14.20
2018-04-13T06:49:41.857Z,14.20
2018-04-13T06:52:09.377Z,14.30
2018-04-13T06:54:37.006Z,14.30
2018-04-13T06:57:05.284Z,14.30
2018-04-13T06:59:34.477Z,14.30
2018-04-13T07:02:02.798Z,14.30
2018-04-13T07:04:30.312Z,14.30
2018-04-13T07:06:58.594Z,14.20
2018-04-13T07:09:26.889Z,14.10
2018-04-13T07:14:28.779Z,14.20
2018-04-13T07:16:57.093Z,14.10
2018-04-13T07:19:24.619Z,14.00
2018-04-13T07:21:52.935Z,14.10
2018-04-13T07:24:20.470Z,14.00
2018-04-13T07:26:48.865Z,14.30
2018-04-13T07:29:16.454Z,14.20
2018-04-13T07:31:44.375Z,14.10
2018-04-13T07:34:11.577Z,14.20
2018-04-13T07:36:39.509Z,14.30
2018-04-13T07:39:07.054Z,14.30
2018-04-13T07:41:35.558Z,14.40
2018-04-13T07:44:03.180Z,14.30
2018-04-13T07:46:30.713Z,14.30
2018-04-13T07:48:59.009Z,14.40
2018-04-13T07:51:26.566Z,14.40
2018-04-13T07:53:54.073Z,14.30
2018-04-13T07:56:21.604Z,14.60
2018-04-13T07:58:49.140Z,14.90
2018-04-13T08:01:17.502Z,15.80
2018-04-13T08:03:45.815Z,17.00
2018-04-13T08:06:14.181Z,18.90
2018-04-13T08:08:48.071Z,18.80
2018-04-13T08:11:31.115Z,20.00
2018-04-13T08:14:06.536Z,20.40
2018-04-13T08:16:34.698Z,19.80
2018-04-13T08:19:02.234Z,19.40
2018-04-13T08:21:29.750Z,19.40
2018-04-13T08:23:57.281Z,19.40
2018-04-13T08:26:24.798Z,19.40
2018-04-13T08:28:52.621Z,19.40
2018-04-13T08:31:20.172Z,19.80
2018-04-13T08:33:47.701Z,20.30
2018-04-13T08:36:15.990Z,22.40
2018-04-13T08:38:44.409Z,23.00
2018-04-13T08:41:11.939Z,22.90
2018-04-13T08:43:40.247Z,24.70
2018-04-13T08:46:07.785Z,24.60
2018-04-13T08:48:35.361Z,25.30
2018-04-13T08:51:03.617Z,25.30
2018-04-13T08:53:31.929Z,25.50
2018-04-13T08:55:59.437Z,25.40
2018-04-13T08:58:26.954Z,25.60
2018-04-13T09:00:54.536Z,25.50
2018-04-13T09:03:22.359Z,25.40
2018-04-13T09:05:50.644Z,25.00
2018-04-13T09:08:18.954Z,25.30
2018-04-13T09:10:46.469Z,25.30
2018-04-13T09:13:13.989Z,26.00
2018-04-13T09:15:41.536Z,26.60
2018-04-13T09:18:09.054Z,26.90
2018-04-13T09:20:36.573Z,27.30
2018-04-13T09:23:04.105Z,27.70
2018-04-13T09:25:32.381Z,27.90
2018-04-13T09:28:00.703Z,28.60
2018-04-13T09:30:28.325Z,28.50
2018-04-13T09:32:56.633Z,30.20
2018-04-13T09:35:24.157Z,30.10
2018-04-13T09:37:51.673Z,30.10
2018-04-13T09:40:19.184Z,30.30
2018-04-13T09:42:46.693Z,30.30
2018-04-13T09:45:14.240Z,30.80
2018-04-13T09:47:42.517Z,31.10
2018-04-13T09:50:10.800Z,31.90
2018-04-13T09:52:39.106Z,32.30
2018-04-13T09:55:06.645Z,32.20
2018-04-13T09:57:34.922Z,32.80
2018-04-13T10:00:03.258Z,32.80
2018-04-13T10:02:36.495Z,32.80
2018-04-13T10:05:10.508Z,33.00
2018-04-13T10:07:38.794Z,32.30
2018-04-13T10:10:07.079Z,32.10
2018-04-13T10:12:35.385Z,31.70
2018-04-13T10:15:02.927Z,31.60
2018-04-13T10:17:31.196Z,31.60
2018-04-13T10:19:58.720Z,31.60
2018-04-13T10:22:26.245Z,30.70
2018-04-13T10:24:53.812Z,30.60
2018-04-13T10:27:21.337Z,31.10
2018-04-13T10:29:48.854Z,31.30
2018-04-13T10:32:16.366Z,31.20
2018-04-13T10:34:43.943Z,31.40
2018-04-13T10:37:11.470Z,31.00
2018-04-13T10:39:38.980Z,29.70
2018-04-13T10:42:07.304Z,27.00
2018-04-13T10:44:34.813Z,26.80
2018-04-13T10:47:02.337Z,26.10
2018-04-13T10:49:29.873Z,26.70
2018-04-13T10:51:57.387Z,27.20
2018-04-13T10:54:24.912Z,28.10
2018-04-13T10:56:52.457Z,29.50
2018-04-13T10:59:20.732Z,28.90
2018-04-13T11:01:49.018Z,27.30
2018-04-13T11:04:17.333Z,25.70
2018-04-13T11:06:44.958Z,25.50
2018-04-13T11:09:13.251Z,23.20
2018-04-13T11:11:40.798Z,23.00
2018-04-13T11:14:09.123Z,21.50
2018-04-13T11:16:36.628Z,21.40
2018-04-13T11:19:04.158Z,20.60
2018-04-13T11:21:31.681Z,20.10
2018-04-13T11:23:59.214Z,19.80
2018-04-13T11:26:26.762Z,19.80
2018-04-13T11:28:54.297Z,19.80
2018-04-13T11:31:21.844Z,20.00
2018-04-13T11:33:50.138Z,20.00
2018-04-13T11:36:17.661Z,19.90
2018-04-13T11:38:45.952Z,19.60
2018-04-13T11:41:14.267Z,19.50
2018-04-13T11:43:41.793Z,19.40
2018-04-13T11:46:10.070Z,19.30
2018-04-13T11:48:37.618Z,19.20
2018-04-13T11:51:05.153Z,19.00
2018-04-13T11:53:32.678Z,18.90
2018-04-13T11:56:00.968Z,19.00
2018-04-13T11:58:29.348Z,19.20
2018-04-13T12:00:57.630Z,19.20
2018-04-13T12:03:25.925Z,19.30
2018-04-13T12:05:53.445Z,19.20
2018-04-13T12:08:21.905Z,18.90
2018-04-13T12:10:49.438Z,18.90
2018-04-13T12:13:16.969Z,18.90
2018-04-13T12:15:44.513Z,18.70
2018-04-13T12:18:12.017Z,18.40
2018-04-13T12:20:40.341Z,18.00
2018-04-13T12:23:07.852Z,17.90
2018-04-13T12:25:36.139Z,17.60
2018-04-13T12:28:04.419Z,17.60
2018-04-13T12:30:32.689Z,17.40
2018-04-13T12:33:00.217Z,17.40
2018-04-13T12:35:27.727Z,17.40
2018-04-13T12:37:56.007Z,17.50
2018-04-13T12:40:24.293Z,17.70
2018-04-13T12:42:52.600Z,17.90
2018-04-13T12:45:20.113Z,17.80
2018-04-13T12:47:47.678Z,18.10
2018-04-13T12:50:15.961Z,18.50
2018-04-13T12:52:44.306Z,18.80
2018-04-13T12:55:12.045Z,18.70
2018-04-13T12:57:39.424Z,19.10
2018-04-13T13:00:06.937Z,19.50
2018-04-13T13:02:34.464Z,20.20
2018-04-13T13:05:02.125Z,21.50
2018-04-13T13:07:29.665Z,22.10
2018-04-13T13:09:58.032Z,23.00
2018-04-13T13:12:25.630Z,22.90
2018-04-13T13:14:53.145Z,23.70
2018-04-13T13:17:20.673Z,25.00
2018-04-13T13:19:48.191Z,26.10
2018-04-13T13:22:16.477Z,27.60
2018-04-13T13:24:44.810Z,28.40
2018-04-13T13:27:12.313Z,28.40
2018-04-13T13:29:39.849Z,28.40
2018-04-13T13:32:07.390Z,29.20
2018-04-13T13:34:34.897Z,29.80
2018-04-13T13:37:03.168Z,28.20
2018-04-13T13:39:32.223Z,27.00
2018-04-13T13:41:59.725Z,27.00
2018-04-13T13:44:27.280Z,26.10
2018-04-13T13:46:54.941Z,25.00
2018-04-13T13:49:22.453Z,24.00
2018-04-13T13:51:50.734Z,22.30
2018-04-13T13:54:19.037Z,21.80
2018-04-13T13:56:46.550Z,21.70
2018-04-13T13:59:15.037Z,21.40
2018-04-13T14:01:42.581Z,21.10
2018-04-13T14:04:10.096Z,20.90
2018-04-13T14:06:38.372Z,20.70
2018-04-13T14:09:06.668Z,20.70
2018-04-13T14:11:34.219Z,20.60
2018-04-13T14:14:01.772Z,20.70
2018-04-13T14:16:30.103Z,20.50
2018-04-13T14:18:57.700Z,20.40
2018-04-13T14:21:25.201Z,20.40
2018-04-13T14:23:53.489Z,20.30
2018-04-13T14:26:21.000Z,20.20
2018-04-13T14:28:48.551Z,20.00
2018-04-13T14:31:16.114Z,19.70
2018-04-13T14:33:43.644Z,19.40
2018-04-13T14:36:11.942Z,18.70
2018-04-13T14:38:39.489Z,18.60
2018-04-13T14:41:07.026Z,18.50
2018-04-13T14:43:34.561Z,18.00
2018-04-13T14:46:02.093Z,17.50
2018-04-13T14:48:29.607Z,16.60
2018-04-13T14:50:57.155Z,14.80
2018-04-13T14:53:24.706Z,13.70
2018-04-13T14:55:52.246Z,13.30
2018-04-13T14:58:19.745Z,13.20
2018-04-13T15:00:47.273Z,13.00
2018-04-13T15:03:14.786Z,12.80
2018-04-13T15:05:42.290Z,12.70
2018-04-13T15:08:10.629Z,12.60
2018-04-13T15:10:38.146Z,12.50
2018-04-13T15:13:05.751Z,12.50
2018-04-13T15:15:33.264Z,12.40
2018-04-13T15:18:01.542Z,12.30
2018-04-13T15:20:29.830Z,12.30
2018-04-13T15:22:58.119Z,12.20
2018-04-13T15:25:25.669Z,12.20
2018-04-13T15:27:53.946Z,12.00
2018-04-13T15:30:22.285Z,12.10
2018-04-13T15:32:49.809Z,12.00
2018-04-13T15:35:17.355Z,12.10
2018-04-13T15:37:45.771Z,12.00
2018-04-13T15:40:13.329Z,12.00
2018-04-13T15:42:41.643Z,11.90
2018-04-13T15:45:09.225Z,11.90
2018-04-13T15:47:37.525Z,12.10
2018-04-13T15:50:05.045Z,12.00
2018-04-13T15:52:32.668Z,12.10
2018-04-13T15:55:00.381Z,12.20
2018-04-13T15:57:29.487Z,12.10
2018-04-13T15:59:57.018Z,12.10
2018-04-13T16:02:24.571Z,12.30
2018-04-13T16:04:52.429Z,12.40
2018-04-13T16:07:20.761Z,12.50
2018-04-13T16:09:48.281Z,12.50
2018-04-13T16:12:16.569Z,12.70
2018-04-13T16:14:45.419Z,12.70
2018-04-13T16:17:13.737Z,12.70
2018-04-13T16:19:42.016Z,12.70
2018-04-13T16:22:10.312Z,12.80
2018-04-13T16:24:38.589Z,12.70
2018-04-13T16:27:06.133Z,12.60
2018-04-13T16:29:34.463Z,12.70
2018-04-13T16:32:01.991Z,12.70
2018-04-13T16:34:30.279Z,12.90
2018-04-13T16:36:58.625Z,13.00
2018-04-13T16:39:26.170Z,13.00
2018-04-13T16:41:54.494Z,13.00
2018-04-13T16:44:22.078Z,12.90
2018-04-13T16:46:50.366Z,13.00
2018-04-13T16:49:17.898Z,13.00
2018-04-13T16:51:46.231Z,13.00
2018-04-13T16:54:13.759Z,13.00
2018-04-13T16:56:42.054Z,13.20
2018-04-13T16:59:09.637Z,13.10
2018-04-13T17:01:37.149Z,13.20
2018-04-13T17:04:04.665Z,13.30
2018-04-13T17:06:32.189Z,13.30
2018-04-13T17:09:00.485Z,13.20
2018-04-13T17:11:28.749Z,13.20
2018-04-13T17:13:57.066Z,13.10
2018-04-13T17:16:24.780Z,13.10
2018-04-13T17:18:52.290Z,13.10
2018-04-13T17:21:19.810Z,13.00
2018-04-13T17:23:47.325Z,12.90
2018-04-13T17:26:14.825Z,12.90
2018-04-13T17:28:42.350Z,12.70
2018-04-13T17:31:09.862Z,12.70
2018-04-13T17:33:38.148Z,12.70
2018-04-13T17:36:07.196Z,12.50
2018-04-13T17:38:34.758Z,12.50
2018-04-13T17:41:02.319Z,12.60
2018-04-13T17:43:29.838Z,12.40
2018-04-13T17:45:57.341Z,12.40
2018-04-13T17:48:24.863Z,12.30
2018-04-13T17:50:53.241Z,12.20
2018-04-13T17:53:20.742Z,12.20
2018-04-13T17:55:49.022Z,12.20
2018-04-13T17:58:17.342Z,12.30
2018-04-13T18:00:44.898Z,12.20
2018-04-13T18:03:12.405Z,12.30
2018-04-13T18:05:39.971Z,12.30
2018-04-13T18:08:07.478Z,12.40
2018-04-13T18:10:34.985Z,12.50
2018-04-13T18:13:02.549Z,12.40
2018-04-13T18:15:30.053Z,12.40
2018-04-13T18:17:58.378Z,12.30
2018-04-13T18:20:27.863Z,12.20
2018-04-13T18:22:55.397Z,12.30
2018-04-13T18:25:22.916Z,12.20
2018-04-13T18:27:50.456Z,12.10
2018-04-13T18:30:18.051Z,12.10
2018-04-13T18:32:45.563Z,12.10
2018-04-13T18:35:13.849Z,12.00
2018-04-13T18:37:42.122Z,12.00
2018-04-13T18:40:10.433Z,11.90
2018-04-13T18:42:37.987Z,11.90
2018-04-13T18:45:05.504Z,11.90
2018-04-13T18:47:33.005Z,11.90
2018-04-13T18:50:01.326Z,11.70
2018-04-13T18:52:28.867Z,11.60
2018-04-13T18:54:56.381Z,11.70
2018-04-13T18:57:24.701Z,11.50
2018-04-13T18:59:52.201Z,11.50
2018-04-13T19:02:19.721Z,11.40
2018-04-13T19:04:48.068Z,11.40
2018-04-13T19:07:15.583Z,11.30
2018-04-13T19:09:43.114Z,11.40
2018-04-13T19:12:11.405Z,11.40
2018-04-13T19:14:39.717Z,11.30
2018-04-13T19:17:07.972Z,11.30
2018-04-13T19:19:36.317Z,11.20
2018-04-13T19:22:03.826Z,11.20
2018-04-13T19:24:32.120Z,11.20
2018-04-13T19:26:59.650Z,11.10
2018-04-13T19:29:27.168Z,11.20
2018-04-13T19:31:54.694Z,11.10
2018-04-13T19:34:23.043Z,11.10
2018-04-13T19:36:50.567Z,11.00
2018-04-13T19:39:18.069Z,11.00
2018-04-13T19:41:45.596Z,11.00
2018-04-13T19:44:13.128Z,10.90
2018-04-13T19:46:41.423Z,10.80
2018-04-13T19:49:09.722Z,10.90
2018-04-13T19:51:37.295Z,10.80
2018-04-13T19:54:04.814Z,11.00
2018-04-13T19:56:33.122Z,11.00
2018-04-13T19:59:00.705Z,11.00
2018-04-13T20:01:28.225Z,11.00
2018-04-13T20:03:56.517Z,10.90
2018-04-13T20:06:24.039Z,10.90
2018-04-13T20:08:51.585Z,10.90
2018-04-13T20:11:19.127Z,10.90
2018-04-13T20:13:46.637Z,10.80
2018-04-13T20:16:20.989Z,10.90
2018-04-13T20:18:49.265Z,10.80
2018-04-13T20:21:16.859Z,10.70
2018-04-13T20:23:44.629Z,10.70
2018-04-13T20:26:12.133Z,10.70
2018-04-13T20:28:39.641Z,10.70
2018-04-13T20:31:07.951Z,10.80
2018-04-13T20:33:35.503Z,10.70
2018-04-13T20:36:03.069Z,10.60
2018-04-13T20:38:30.595Z,10.70
2018-04-13T20:40:58.888Z,10.60
2018-04-13T20:43:27.650Z,10.50
2018-04-13T20:45:55.964Z,10.50
2018-04-13T20:48:24.248Z,10.50
2018-04-13T20:50:52.534Z,10.40
2018-04-13T20:53:20.837Z,10.30
2018-04-13T20:55:48.416Z,10.30
2018-04-13T20:58:16.052Z,10.20
2018-04-13T21:00:43.683Z,10.10
2018-04-13T21:03:11.345Z,10.10
2018-04-13T21:05:38.863Z,10.00
2018-04-13T21:08:06.424Z,10.00
2018-04-13T21:10:34.013Z,9.90
2018-04-13T21:13:01.690Z,9.90
2018-04-13T21:15:29.320Z,9.90
2018-04-13T21:17:57.150Z,9.90
2018-04-13T21:20:25.615Z,10.00
2018-04-13T21:22:53.343Z,9.90
2018-04-13T21:25:21.942Z,10.10
2018-04-13T21:27:49.585Z,10.10
2018-04-13T21:30:17.113Z,10.10
2018-04-13T21:32:44.782Z,10.10
2018-04-13T21:35:13.229Z,10.20
2018-04-13T21:37:40.859Z,10.10
2018-04-13T21:40:08.409Z,10.10
2018-04-13T21:42:35.962Z,10.20
2018-04-13T21:45:03.533Z,10.20
2018-04-13T21:47:31.068Z,10.20
2018-04-13T21:49:58.573Z,10.10
2018-04-13T21:52:26.113Z,10.10
2018-04-13T21:54:53.627Z,10.10
2018-04-13T21:57:21.263Z,10.20
2018-04-13T21:59:48.789Z,10.20
2018-04-13T22:02:16.306Z,10.20
2018-04-13T22:04:44.583Z,9.90
2018-04-13T22:07:12.882Z,10.00
2018-04-13T22:09:40.386Z,10.00
2018-04-13T22:12:19.644Z,10.20
2018-04-13T22:14:54.723Z,10.00
2018-04-13T22:17:22.250Z,10.00
2018-04-13T22:19:49.768Z,10.10
2018-04-13T22:22:17.306Z,10.10
2018-04-13T22:24:45.057Z,9.80
2018-04-13T22:27:13.349Z,9.70
2018-04-13T22:29:41.642Z,9.70
2018-04-13T22:32:09.177Z,9.60
2018-04-13T22:34:36.917Z,9.70
2018-04-13T22:37:05.964Z,9.80
2018-04-13T22:39:33.562Z,9.80
2018-04-13T22:42:01.118Z,9.90
2018-04-13T22:44:28.636Z,9.70
2018-04-13T22:46:56.173Z,9.70
2018-04-13T22:49:23.682Z,9.50
2018-04-13T22:51:53.999Z,9.40
2018-04-13T22:54:22.311Z,9.50
2018-04-13T22:56:49.954Z,9.40
2018-04-13T22:59:18.220Z,9.30
2018-04-13T23:01:46.523Z,9.40
2018-04-13T23:04:14.026Z,9.40
2018-04-13T23:06:41.589Z,9.30
2018-04-13T23:09:09.197Z,9.30
2018-04-13T23:11:37.565Z,9.40
2018-04-13T23:14:06.582Z,9.40
2018-04-13T23:16:34.876Z,9.40
2018-04-13T23:19:02.502Z,9.40
2018-04-13T23:21:29.973Z,9.40
2018-04-13T23:23:57.526Z,9.40
2018-04-13T23:26:25.334Z,9.30
2018-04-13T23:28:53.605Z,9.30
2018-04-13T23:31:21.908Z,9.30
2018-04-13T23:33:49.445Z,9.20
2018-04-13T23:36:17.725Z,9.30
2018-04-13T23:38:46.401Z,9.20
2018-04-13T23:41:13.966Z,9.10
2018-04-13T23:43:41.482Z,9.20
2018-04-13T23:46:09.020Z,9.30
2018-04-13T23:48:37.294Z,9.10
2018-04-13T23:51:05.569Z,9.20
2018-04-13T23:53:33.863Z,9.10
2018-04-13T23:56:02.146Z,9.10
2018-04-13T23:58:30.437Z,9.20
